Time;durP1;ratioP1;P1;durP2;ratioP2;P2;SDS_P1;SDS_P2;PMS_P1;PMS_P2;Temp;Humidity;BMP_temperature;BMP_pressure;BME280_temperature;BME280_humidity;BME280_pressure;Samples;Min_cycle;Max_cycle;Signal;HPM_P1;HPM_P2
2024/02/07 00:01:38;;;;;;;4.87;3.20;;;;;;;8.14;82.71;98344.81;5108083;28;20287;-53
2024/02/07 00:04:07;;;;;;;3.67;2.93;;;;;;;8.18;82.22;98351.53;5123584;27;20204;-54
2024/02/07 00:06:35;;;;;;;4.37;2.50;;;;;;;8.20;82.08;98338.63;5117357;27;20210;-54
2024/02/07 00:09:03;;;;;;;3.93;2.80;;;;;;;8.21;82.51;98343.75;5113141;28;20223;-54
2024/02/07 00:11:31;;;;;;;8.57;3.27;;;;;;;8.24;81.70;98328.22;5110866;28;20200;-61
2024/02/07 00:13:59;;;;;;;4.87;2.70;;;;;;;8.29;82.10;98324.72;5116638;27;20204;-53
2024/02/07 00:16:27;;;;;;;5.07;2.87;;;;;;;8.31;82.72;98330.63;5114168;27;20707;-54
2024/02/07 00:18:55;;;;;;;3.20;2.60;;;;;;;8.34;81.85;98321.13;5112644;27;20199;-59
2024/02/07 00:21:24;;;;;;;3.33;2.80;;;;;;;8.38;80.34;98306.50;5116230;27;20208;-58
2024/02/07 00:23:52;;;;;;;4.90;3.17;;;;;;;8.39;81.32;98313.28;5115174;27;20252;-53
2024/02/07 00:26:20;;;;;;;3.83;2.43;;;;;;;8.43;81.42;98336.28;5109033;27;20209;-53
2024/02/07 00:28:49;;;;;;;3.60;2.33;;;;;;;8.50;81.41;98318.09;5113317;27;20207;-53
2024/02/07 00:31:17;;;;;;;4.13;2.50;;;;;;;8.54;79.07;98305.13;5108455;27;20269;-54
2024/02/07 00:33:45;;;;;;;4.07;2.30;;;;;;;8.55;80.40;98314.53;5112664;28;20200;-57
2024/02/07 00:36:13;;;;;;;5.00;2.57;;;;;;;8.59;80.05;98323.81;5116543;27;20230;-55
2024/02/07 00:38:42;;;;;;;4.60;2.13;;;;;;;8.60;80.02;98302.38;5115286;27;20192;-54
2024/02/07 00:41:19;;;;;;;5.17;2.40;;;;;;;8.60;80.14;98297.22;5119492;27;20252;-55
2024/02/07 00:43:47;;;;;;;4.23;2.23;;;;;;;8.62;80.51;98300.59;5115975;27;20263;-55
2024/02/07 00:46:15;;;;;;;2.83;2.50;;;;;;;8.64;78.52;98296.25;5110728;27;20236;-54
2024/02/07 00:48:44;;;;;;;4.07;2.40;;;;;;;8.65;78.50;98295.38;5106819;28;20223;-55
2024/02/07 00:51:12;;;;;;;3.40;2.23;;;;;;;8.65;79.12;98300.50;5115972;27;20207;-56
2024/02/07 00:53:42;;;;;;;3.10;2.43;;;;;;;8.67;78.42;98318.44;5120264;27;20546;-54
2024/02/07 00:56:09;;;;;;;3.80;2.33;;;;;;;8.69;79.29;98299.53;5120992;27;20282;-55
2024/02/07 00:58:38;;;;;;;5.43;2.70;;;;;;;8.71;79.63;98284.91;5113732;27;20733;-57
2024/02/07 01:01:06;;;;;;;3.20;2.47;;;;;;;8.71;79.11;98287.47;5102080;27;20228;-55
2024/02/07 01:03:34;;;;;;;3.70;2.40;;;;;;;8.68;80.27;98269.59;5107893;28;20290;-60
2024/02/07 01:06:02;;;;;;;4.10;2.20;;;;;;;8.68;79.93;98271.31;5109770;27;20666;-54
2024/02/07 01:08:30;;;;;;;3.10;2.37;;;;;;;8.67;79.39;98296.16;5117486;27;20200;-56
2024/02/07 01:10:59;;;;;;;5.00;2.43;;;;;;;8.69;78.79;98285.84;5111483;27;20740;-55
2024/02/07 01:13:27;;;;;;;4.50;2.47;;;;;;;8.68;79.40;98282.41;5113448;27;20711;-56
2024/02/07 01:15:55;;;;;;;3.27;2.30;;;;;;;8.68;80.05;98272.16;5119064;27;20200;-58
2024/02/07 01:18:23;;;;;;;4.33;1.97;;;;;;;8.69;79.08;98265.31;5112035;27;20344;-64
2024/02/07 01:20:51;;;;;;;2.53;2.10;;;;;;;8.69;80.17;98252.47;5114341;27;20203;-55
2024/02/07 01:23:19;;;;;;;2.77;2.07;;;;;;;8.68;79.60;98241.34;5111207;28;20685;-54
2024/02/07 01:25:48;;;;;;;4.20;2.07;;;;;;;8.69;79.03;98261.00;5110078;27;20231;-54
2024/02/07 01:28:19;;;;;;;5.70;2.47;;;;;;;8.69;80.39;98230.19;5113932;27;20230;-57
2024/02/07 01:30:46;;;;;;;4.80;2.07;;;;;;;8.67;80.49;98237.09;5122166;27;20215;-64
2024/02/07 01:33:16;;;;;;;3.27;2.00;;;;;;;8.66;81.01;98244.88;5117454;27;20318;-56
2024/02/07 01:35:44;;;;;;;4.63;2.20;;;;;;;8.67;78.91;98226.84;5107104;27;20292;-56
2024/02/07 01:38:17;;;;;;;2.93;2.23;;;;;;;8.66;79.61;98227.72;5112377;27;20537;-57
2024/02/07 01:40:47;;;;;;;3.83;2.43;;;;;;;8.69;80.52;98224.22;5112241;27;20204;-55
2024/02/07 01:43:15;;;;;;;3.43;2.20;;;;;;;8.68;79.60;98233.63;5112119;27;20200;-55
2024/02/07 01:45:44;;;;;;;5.60;2.07;;;;;;;8.71;79.71;98219.88;5106614;28;20207;-54
2024/02/07 01:48:12;;;;;;;2.60;2.10;;;;;;;8.70;78.24;98211.34;5116031;27;20203;-61
2024/02/07 01:50:42;;;;;;;3.23;2.13;;;;;;;8.71;77.94;98205.28;5116122;27;20689;-61
2024/02/07 01:53:11;;;;;;;4.20;2.03;;;;;;;8.73;78.77;98171.03;5113630;27;20219;-56
2024/02/07 01:55:41;;;;;;;4.13;2.07;;;;;;;8.73;79.13;98196.69;5110906;28;20682;-55
2024/02/07 01:58:09;;;;;;;3.80;2.20;;;;;;;8.76;79.33;98204.31;5117648;28;20219;-55
2024/02/07 02:00:38;;;;;;;3.60;2.10;;;;;;;8.77;77.97;98190.59;5109951;28;20704;-54
2024/02/07 02:03:07;;;;;;;4.03;2.00;;;;;;;8.79;77.77;98204.19;5110412;28;20211;-61
2024/02/07 02:05:36;;;;;;;5.10;2.60;;;;;;;8.81;77.23;98199.88;5121085;28;20214;-55
2024/02/07 02:08:04;;;;;;;3.03;2.00;;;;;;;8.85;76.51;98188.59;5111019;28;20207;-51
2024/02/07 02:10:32;;;;;;;2.90;1.90;;;;;;;8.85;77.56;98193.72;5109554;28;20701;-50
2024/02/07 02:13:01;;;;;;;3.20;1.73;;;;;;;8.87;77.88;98189.38;5111215;28;20663;-52
2024/02/07 02:15:29;;;;;;;4.67;1.77;;;;;;;8.87;77.86;98200.50;5110195;28;20303;-51
2024/02/07 02:17:57;;;;;;;3.07;1.67;;;;;;;8.88;76.87;98163.66;5111494;28;20755;-50
2024/02/07 02:20:26;;;;;;;2.70;1.70;;;;;;;8.90;75.95;98176.41;5105207;28;20253;-50
2024/02/07 02:23:17;;;;;;;2.80;1.77;;;;;;;8.90;76.74;98186.69;5108900;28;20957;-50
2024/02/07 02:26:12;;;;;;;2.13;1.90;;;;;;;8.92;76.40;98177.22;5106305;28;20245;-52
2024/02/07 02:29:04;;;;;;;2.20;1.60;;;;;;;8.92;75.78;98175.50;5111411;28;20256;-49
2024/02/07 02:31:36;;;;;;;3.63;2.00;;;;;;;8.92;76.37;98200.34;5101589;28;20197;-60
2024/02/07 02:34:06;;;;;;;4.43;2.00;;;;;;;8.92;76.65;98179.78;5111650;28;20687;-51
2024/02/07 02:36:34;;;;;;;3.50;1.43;;;;;;;8.90;75.88;98177.25;5113044;28;20257;-50
2024/02/07 02:39:05;;;;;;;2.73;1.87;;;;;;;8.91;77.75;98173.81;5108235;28;20200;-53
2024/02/07 02:41:33;;;;;;;2.93;1.80;;;;;;;8.91;76.52;98172.94;5109429;28;20538;-51
2024/02/07 02:44:01;;;;;;;1.90;1.60;;;;;;;8.92;77.76;98160.06;5111258;28;20253;-53
2024/02/07 02:46:29;;;;;;;3.00;1.90;;;;;;;8.92;76.69;98154.09;5107706;27;20208;-51
2024/02/07 02:48:59;;;;;;;1.60;1.50;;;;;;;8.94;75.50;98162.56;5111884;28;20214;-53
2024/02/07 02:51:27;;;;;;;3.40;1.80;;;;;;;8.94;75.96;98142.03;5117896;28;20270;-57
2024/02/07 02:53:55;;;;;;;2.90;1.50;;;;;;;8.94;76.23;98135.16;5112113;28;20204;-53
2024/02/07 02:56:23;;;;;;;3.43;1.60;;;;;;;8.94;75.30;98148.00;5107870;28;20202;-49
2024/02/07 02:58:51;;;;;;;4.10;1.80;;;;;;;8.95;76.29;98139.44;5112956;28;20196;-56
2024/02/07 03:01:20;;;;;;;1.73;1.23;;;;;;;8.98;76.78;98133.31;5108120;28;20553;-55
2024/02/07 03:03:54;;;;;;;3.70;1.50;;;;;;;8.97;76.03;98112.84;5105506;28;20211;-55
2024/02/07 03:06:31;;;;;;;2.30;2.00;;;;;;;8.95;75.93;98120.63;5113021;28;20211;-51
2024/02/07 03:09:07;;;;;;;1.90;1.30;;;;;;;8.96;75.79;98127.41;5112382;28;20255;-54
2024/02/07 03:11:36;;;;;;;3.67;1.50;;;;;;;8.97;75.17;98141.94;5112850;28;20211;-51
2024/02/07 03:14:05;;;;;;;2.13;1.60;;;;;;;8.97;75.16;98089.72;5110808;27;20670;-51
2024/02/07 03:16:35;;;;;;;1.87;1.40;;;;;;;8.97;74.72;98100.81;5107761;27;20253;-55
2024/02/07 03:19:04;;;;;;;3.40;1.90;;;;;;;8.98;76.66;98106.81;5116057;27;20654;-51
2024/02/07 03:21:33;;;;;;;2.50;1.60;;;;;;;8.99;74.36;98106.75;5106500;27;20208;-52
2024/02/07 03:24:01;;;;;;;5.03;2.00;;;;;;;8.98;75.11;98110.19;5113141;27;20211;-52
2024/02/07 03:26:29;;;;;;;1.50;1.40;;;;;;;9.00;75.64;98116.13;5115207;27;20935;-51
2024/02/07 03:28:58;;;;;;;5.40;1.80;;;;;;;9.04;74.42;98116.88;5112092;27;20717;-51
2024/02/07 03:31:26;;;;;;;2.87;1.13;;;;;;;9.04;75.81;98081.72;5120048;27;20212;-55
2024/02/07 03:33:54;;;;;;;2.53;1.50;;;;;;;9.04;74.88;98102.28;5117903;27;20211;-52
2024/02/07 03:36:22;;;;;;;1.70;1.30;;;;;;;9.07;74.38;98071.34;5111302;27;20210;-52
2024/02/07 03:38:52;;;;;;;1.87;1.50;;;;;;;9.08;74.23;98074.75;5114088;27;20704;-55
2024/02/07 03:41:20;;;;;;;2.30;1.60;;;;;;;9.10;72.85;98132.06;5120691;27;20200;-51
2024/02/07 03:43:48;;;;;;;4.33;1.30;;;;;;;9.13;74.49;98078.84;5110547;27;20630;-55
2024/02/07 03:46:17;;;;;;;2.10;1.73;;;;;;;9.12;74.25;98089.16;5111637;27;20598;-51
2024/02/07 03:48:46;;;;;;;3.03;1.43;;;;;;;9.13;73.34;98071.13;5123626;27;20237;-50
2024/02/07 03:51:15;;;;;;;5.17;1.60;;;;;;;9.14;72.94;98070.22;5120065;27;20315;-59
2024/02/07 03:53:44;;;;;;;4.57;1.57;;;;;;;9.13;74.48;98081.41;5113487;27;20713;-54
2024/02/07 03:56:14;;;;;;;2.47;1.63;;;;;;;9.10;74.29;98081.50;5115450;27;20204;-52
2024/02/07 03:58:42;;;;;;;3.10;1.50;;;;;;;9.11;74.10;98061.78;5114185;27;20203;-51
2024/02/07 04:01:13;;;;;;;4.77;1.77;;;;;;;9.06;76.00;98043.16;5116210;27;20196;-51
2024/02/07 04:03:41;;;;;;;2.60;1.43;;;;;;;9.00;76.77;98067.34;5112729;27;20562;-60
2024/02/07 04:06:12;;;;;;;3.20;1.60;;;;;;;8.95;77.75;98061.53;5116667;27;20643;-52
2024/02/07 04:08:40;;;;;;;1.23;1.13;;;;;;;8.87;79.08;98079.78;5105609;28;20278;-60
2024/02/07 05:17:03;;;;;;;1.90;0.60;;;;;;;6.37;90.70;98194.13;5114970;27;20243;-49
2024/02/07 05:19:35;;;;;;;1.10;0.40;;;;;;;6.27;91.01;98205.47;5109850;27;20195;-51
2024/02/07 05:22:03;;;;;;;0.40;0.33;;;;;;;6.21;90.89;98205.59;5107621;27;20207;-54
2024/02/07 05:24:32;;;;;;;1.30;0.20;;;;;;;6.17;91.90;98214.22;5115811;27;20203;-51
2024/02/07 05:27:00;;;;;;;1.60;0.30;;;;;;;6.16;91.77;98210.81;5114416;28;20658;-53
2024/02/07 05:29:28;;;;;;;0.37;0.33;;;;;;;6.12;91.76;98205.81;5108045;27;20632;-52
2024/02/07 05:31:56;;;;;;;0.87;0.30;;;;;;;6.05;91.77;98217.91;5110400;28;20234;-51
2024/02/07 05:34:25;;;;;;;0.40;0.40;;;;;;;6.00;91.88;98219.72;5118641;27;20223;-53
2024/02/07 05:36:55;;;;;;;0.30;0.30;;;;;;;5.91;92.55;98217.34;5111150;27;20572;-54
2024/02/07 05:39:23;;;;;;;1.63;1.17;;;;;;;5.88;93.51;98232.72;5104555;28;20216;-54
2024/02/07 05:41:51;;;;;;;0.30;0.30;;;;;;;5.77;92.25;98221.03;5113208;27;20245;-52
2024/02/07 05:44:19;;;;;;;0.93;0.43;;;;;;;5.63;91.38;98229.84;5120885;27;20203;-54
2024/02/07 05:46:47;;;;;;;0.50;0.40;;;;;;;5.46;90.55;98243.00;5110673;27;20204;-55
2024/02/07 05:49:15;;;;;;;1.17;0.40;;;;;;;5.30;91.60;98250.09;5113348;27;20261;-54
2024/02/07 05:51:43;;;;;;;0.30;0.30;;;;;;;5.18;91.48;98251.16;5111652;27;20299;-55
2024/02/07 05:54:12;;;;;;;0.83;0.30;;;;;;;5.00;91.56;98262.56;5113385;28;20631;-53
2024/02/07 05:56:40;;;;;;;0.20;0.20;;;;;;;4.90;91.98;98260.19;5109090;27;21136;-56
2024/02/07 05:59:08;;;;;;;0.70;0.30;;;;;;;4.84;92.19;98263.69;5115536;27;20208;-60
2024/02/07 06:01:36;;;;;;;0.63;0.63;;;;;;;4.75;92.65;98274.91;5109475;28;20290;-55
2024/02/07 06:04:07;;;;;;;0.30;0.30;;;;;;;4.74;92.75;98280.03;5111464;28;20515;-55
2024/02/07 06:06:35;;;;;;;0.20;0.20;;;;;;;4.70;91.86;98286.88;5107447;28;20290;-54
2024/02/07 06:09:05;;;;;;;0.40;0.20;;;;;;;4.66;92.80;98292.06;5116617;28;20248;-58
2024/02/07 06:11:41;;;;;;;0.20;0.20;;;;;;;4.65;93.80;98291.22;5107304;28;20915;-54
2024/02/07 06:14:10;;;;;;;0.60;0.30;;;;;;;4.64;91.57;98297.22;5109478;28;20204;-54
2024/02/07 06:16:39;;;;;;;0.20;0.20;;;;;;;4.60;93.11;98296.41;5099431;28;20694;-52
2024/02/07 06:19:11;;;;;;;0.20;0.20;;;;;;;4.58;92.64;98297.28;5105555;28;20200;-56
2024/02/07 06:21:40;;;;;;;1.10;0.40;;;;;;;4.58;91.95;98294.75;5107862;28;20564;-54
2024/02/07 06:24:08;;;;;;;1.30;0.30;;;;;;;4.59;92.66;98304.91;5107878;28;20199;-56
2024/02/07 06:26:37;;;;;;;0.27;0.20;;;;;;;4.59;93.71;98296.41;5114531;28;20204;-51
2024/02/07 06:29:05;;;;;;;0.50;0.30;;;;;;;4.58;93.46;98299.84;5111113;28;20227;-53
2024/02/07 06:31:33;;;;;;;0.30;0.30;;;;;;;4.57;92.94;98296.47;5112112;28;20682;-55
2024/02/07 06:34:01;;;;;;;1.17;0.30;;;;;;;4.58;91.46;98295.59;5114289;28;20207;-54
2024/02/07 06:36:29;;;;;;;1.23;0.40;;;;;;;4.55;91.57;98308.38;5119370;28;20208;-61
2024/02/07 06:38:57;;;;;;;0.60;0.60;;;;;;;4.51;88.37;98300.81;5113480;28;20206;-55
2024/02/07 06:41:25;;;;;;;0.30;0.30;;;;;;;4.40;88.15;98307.78;5110998;28;20207;-55
2024/02/07 06:43:54;;;;;;;0.40;0.40;;;;;;;4.36;88.72;98312.06;5113018;28;20203;-59
2024/02/07 06:46:23;;;;;;;0.63;0.40;;;;;;;4.35;90.26;98324.00;5118666;27;20196;-53
2024/02/07 06:48:51;;;;;;;0.50;0.50;;;;;;;4.35;88.94;98339.28;5112987;27;20646;-63
2024/02/07 06:51:19;;;;;;;0.40;0.40;;;;;;;4.32;89.73;98324.03;5126433;27;20231;-58
2024/02/07 06:53:48;;;;;;;0.40;0.40;;;;;;;4.30;89.87;98324.91;5116174;27;20216;-58
2024/02/07 06:56:16;;;;;;;1.90;0.60;;;;;;;4.34;91.60;98335.06;5116162;27;20693;-57
2024/02/07 06:58:44;;;;;;;0.60;0.60;;;;;;;4.35;91.11;98334.19;5115187;27;20643;-54
2024/02/07 07:01:14;;;;;;;0.83;0.60;;;;;;;4.32;91.04;98339.31;5113124;28;20311;-57
2024/02/07 07:03:43;;;;;;;0.33;0.33;;;;;;;4.33;90.06;98345.25;5106717;28;20610;-52
2024/02/07 07:06:11;;;;;;;0.40;0.40;;;;;;;4.24;89.79;98341.13;5113242;27;20206;-53
2024/02/07 07:08:39;;;;;;;0.87;0.50;;;;;;;4.22;89.99;98317.38;5115898;27;20658;-52
2024/02/07 07:11:07;;;;;;;0.80;0.40;;;;;;;4.11;87.73;98337.91;5122277;27;20196;-53
2024/02/07 07:13:35;;;;;;;0.40;0.40;;;;;;;4.03;87.79;98321.88;5118635;27;20588;-54
2024/02/07 07:16:03;;;;;;;0.30;0.30;;;;;;;3.98;87.79;98327.91;5110058;27;20204;-56
2024/02/07 07:18:32;;;;;;;0.47;0.40;;;;;;;3.95;88.72;98330.47;5113435;27;20239;-55
2024/02/07 07:21:00;;;;;;;1.47;0.37;;;;;;;3.94;88.28;98337.28;5114164;27;20286;-56
2024/02/07 07:23:28;;;;;;;1.70;0.60;;;;;;;3.92;88.44;98330.53;5113752;28;20204;-56
2024/02/07 07:25:56;;;;;;;1.40;0.50;;;;;;;3.87;87.73;98326.31;5111340;27;20200;-56
2024/02/07 07:28:24;;;;;;;1.20;0.43;;;;;;;3.88;88.53;98329.72;5111859;28;20561;-57
2024/02/07 07:30:52;;;;;;;2.10;0.70;;;;;;;3.87;88.00;98328.03;5112829;27;20633;-58
2024/02/07 07:33:20;;;;;;;0.87;0.60;;;;;;;3.84;87.70;98315.34;5114570;27;20204;-58
2024/02/07 07:35:50;;;;;;;1.63;0.53;;;;;;;3.81;87.37;98320.47;5120926;27;20566;-59
2024/02/07 07:38:18;;;;;;;1.07;0.70;;;;;;;3.81;88.61;98333.19;5112431;27;20207;-56
2024/02/07 07:40:46;;;;;;;0.60;0.40;;;;;;;3.85;88.24;98332.28;5106807;27;20199;-53
2024/02/07 07:43:17;;;;;;;1.77;0.60;;;;;;;3.82;86.60;98329.78;5116559;27;20295;-61
2024/02/07 07:45:45;;;;;;;1.30;0.70;;;;;;;3.73;88.08;98330.75;5111110;27;20231;-53
2024/02/07 07:48:13;;;;;;;1.80;0.77;;;;;;;3.70;88.14;98333.31;5129525;27;20653;-53
2024/02/07 07:50:41;;;;;;;0.73;0.60;;;;;;;3.55;87.41;98333.50;5130002;27;20670;-54
2024/02/07 07:53:10;;;;;;;0.97;0.50;;;;;;;3.49;88.76;98319.13;5121346;27;20244;-59
2024/02/07 07:55:38;;;;;;;2.43;0.90;;;;;;;3.48;88.18;98326.78;5111129;28;20218;-57
2024/02/07 07:58:06;;;;;;;0.60;0.50;;;;;;;3.53;87.69;98335.19;5112588;27;20210;-55
2024/02/07 08:00:35;;;;;;;1.60;0.60;;;;;;;3.53;87.53;98335.19;5114370;27;20286;-57
2024/02/07 08:03:04;;;;;;;2.37;0.67;;;;;;;3.53;88.03;98335.19;5115393;27;20278;-56
2024/02/07 08:05:32;;;;;;;1.60;0.70;;;;;;;3.55;87.86;98334.34;5114270;27;20202;-56
2024/02/07 08:08:00;;;;;;;1.80;0.80;;;;;;;3.59;87.29;98332.59;5115661;27;20203;-55
2024/02/07 08:10:30;;;;;;;1.07;0.73;;;;;;;3.59;87.50;98337.69;5108221;27;20200;-57
2024/02/07 08:12:58;;;;;;;1.10;0.77;;;;;;;3.62;87.84;98345.31;5109578;27;20204;-56
2024/02/07 08:15:25;;;;;;;1.23;0.80;;;;;;;3.62;87.02;98340.22;5114429;27;20724;-56
2024/02/07 08:17:53;;;;;;;0.93;0.80;;;;;;;3.60;86.84;98342.75;5107287;27;20235;-57
2024/02/07 08:20:23;;;;;;;1.70;1.10;;;;;;;3.61;87.51;98335.97;5112209;27;20196;-57
2024/02/07 08:22:52;;;;;;;1.90;0.70;;;;;;;3.62;87.66;98347.84;5111295;27;20700;-58
2024/02/07 08:25:21;;;;;;;1.77;0.70;;;;;;;3.68;86.54;98340.13;5106814;27;20196;-56
2024/02/07 08:27:51;;;;;;;2.70;1.00;;;;;;;3.59;86.62;98350.44;5111115;27;20743;-57
2024/02/07 08:30:21;;;;;;;1.17;0.90;;;;;;;3.52;87.18;98353.91;5110661;27;20200;-56
2024/02/07 08:32:50;;;;;;;2.50;1.20;;;;;;;3.47;87.07;98337.84;5114694;27;20257;-57
2024/02/07 08:35:18;;;;;;;2.03;0.80;;;;;;;3.44;87.85;98346.34;5117836;27;20200;-58
2024/02/07 08:37:47;;;;;;;1.27;1.00;;;;;;;3.43;88.53;98338.72;5110299;27;20214;-57
2024/02/07 08:40:15;;;;;;;2.33;0.87;;;;;;;3.50;88.59;98353.91;5105873;27;20751;-58
2024/02/07 08:42:44;;;;;;;1.77;0.90;;;;;;;3.58;88.13;98359.78;5111498;27;20203;-59
2024/02/07 08:45:13;;;;;;;1.50;1.10;;;;;;;3.59;87.67;98345.34;5110448;27;20676;-57
2024/02/07 08:47:42;;;;;;;3.93;1.00;;;;;;;3.57;87.59;98341.94;5113774;27;20208;-59
2024/02/07 08:50:11;;;;;;;1.10;1.00;;;;;;;3.59;87.96;98341.06;5110959;27;20777;-62
2024/02/07 08:52:40;;;;;;;4.27;1.73;;;;;;;3.62;87.32;98337.66;5109749;27;20670;-58
2024/02/07 08:55:09;;;;;;;1.43;0.90;;;;;;;3.61;86.88;98341.09;5107413;27;20257;-58
2024/02/07 08:57:37;;;;;;;3.03;1.40;;;;;;;3.53;86.89;98325.84;5109795;27;20646;-60
2024/02/07 09:00:06;;;;;;;5.23;1.67;;;;;;;3.50;87.61;98327.59;5115401;27;20644;-58
2024/02/07 09:02:36;;;;;;;1.87;1.00;;;;;;;3.48;88.07;98316.59;5108682;27;20204;-57
2024/02/07 09:05:04;;;;;;;2.87;1.27;;;;;;;3.56;88.26;98319.91;5110980;27;20681;-63
2024/02/07 09:07:33;;;;;;;1.77;0.90;;;;;;;3.58;86.72;98320.75;5113050;27;20196;-54
2024/02/07 09:10:02;;;;;;;2.47;1.33;;;;;;;3.62;87.48;98313.03;5113602;27;20231;-52
2024/02/07 09:12:30;;;;;;;1.27;1.00;;;;;;;3.67;87.46;98328.25;5113106;27;20574;-56
2024/02/07 09:14:58;;;;;;;2.27;0.90;;;;;;;3.73;87.03;98332.44;5111659;28;20307;-57
2024/02/07 09:17:26;;;;;;;1.73;1.20;;;;;;;3.78;87.08;98326.41;5111075;28;20235;-55
2024/02/07 09:19:55;;;;;;;2.27;1.50;;;;;;;3.81;86.34;98336.59;5113894;27;20248;-61
2024/02/07 09:22:26;;;;;;;1.63;1.37;;;;;;;3.81;85.75;98335.75;5117855;27;20611;-64
2024/02/07 09:24:54;;;;;;;2.17;1.40;;;;;;;3.83;86.17;98350.16;5113133;27;20272;-58
2024/02/07 09:27:22;;;;;;;4.03;1.40;;;;;;;3.83;85.96;98345.06;5109503;27;20201;-54
2024/02/07 09:29:50;;;;;;;3.13;1.40;;;;;;;3.84;85.42;98339.09;5108087;28;20223;-60
2024/02/07 09:32:34;;;;;;;2.53;1.53;;;;;;;3.87;85.44;98353.50;5109097;27;20199;-55
2024/02/07 09:35:03;;;;;;;3.13;1.50;;;;;;;3.80;85.47;98345.09;5112054;27;20223;-62
2024/02/07 09:37:31;;;;;;;4.27;1.43;;;;;;;3.71;85.58;98337.53;5111026;27;20305;-56
2024/02/07 09:39:59;;;;;;;2.87;2.00;;;;;;;3.69;86.38;98346.91;5111747;27;20264;-56
2024/02/07 09:42:30;;;;;;;2.47;1.50;;;;;;;3.66;86.06;98346.13;5112737;27;20196;-57
2024/02/07 09:44:58;;;;;;;2.40;1.17;;;;;;;3.70;86.63;98352.84;5108550;27;20256;-56
2024/02/07 09:47:32;;;;;;;1.37;1.00;;;;;;;3.74;86.83;98360.44;5113207;27;20539;-55
2024/02/07 09:50:10;;;;;;;1.43;1.20;;;;;;;3.79;86.19;98358.69;5113082;27;20568;-54
2024/02/07 09:52:39;;;;;;;1.63;1.13;;;;;;;3.76;86.60;98352.78;5111403;28;20196;-59
2024/02/07 09:55:08;;;;;;;3.13;1.20;;;;;;;3.80;86.41;98360.38;5114613;27;20216;-55
2024/02/07 09:57:38;;;;;;;3.23;1.30;;;;;;;3.87;86.11;98349.25;5108336;28;20199;-58
2024/02/07 10:00:09;;;;;;;1.97;1.07;;;;;;;3.92;86.77;98356.00;5109731;28;20212;-56
2024/02/07 10:02:39;;;;;;;3.40;1.47;;;;;;;3.87;85.70;98356.91;5104292;28;20204;-57
2024/02/07 10:05:14;;;;;;;2.40;1.10;;;;;;;3.90;86.75;98367.91;5112822;28;20233;-56
2024/02/07 10:07:43;;;;;;;4.33;1.03;;;;;;;3.91;86.24;98367.91;5111229;28;20198;-56
2024/02/07 10:10:11;;;;;;;1.90;1.23;;;;;;;3.90;86.73;98378.09;5109519;28;20252;-59
2024/02/07 10:12:40;;;;;;;5.20;2.03;;;;;;;3.88;86.35;98368.78;5113372;28;20727;-58
2024/02/07 10:15:10;;;;;;;2.83;1.30;;;;;;;3.93;86.97;98367.88;5116385;28;20246;-54
2024/02/07 10:17:38;;;;;;;2.33;1.30;;;;;;;3.99;86.43;98383.09;5113001;27;20227;-54
2024/02/07 10:20:11;;;;;;;3.97;2.17;;;;;;;3.96;86.02;98350.84;5115250;27;20204;-54
2024/02/07 10:22:40;;;;;;;1.90;1.60;;;;;;;3.87;86.27;98362.00;5122524;27;20553;-54
2024/02/07 10:25:11;;;;;;;2.43;1.87;;;;;;;3.93;87.08;98370.41;5119504;27;20619;-53
2024/02/07 10:27:40;;;;;;;2.60;1.40;;;;;;;3.90;87.29;98376.38;5114161;27;20212;-54
2024/02/07 10:30:10;;;;;;;3.10;1.80;;;;;;;3.94;87.04;98374.63;5118654;27;20199;-53
2024/02/07 10:32:38;;;;;;;5.33;2.30;;;;;;;3.96;86.62;98366.13;5126193;27;20206;-54
2024/02/07 10:35:10;;;;;;;2.07;1.57;;;;;;;3.91;87.50;98367.06;5120502;27;20257;-52
2024/02/07 10:37:41;;;;;;;3.67;1.93;;;;;;;3.95;86.81;98378.91;5121284;27;20208;-53
2024/02/07 10:40:11;;;;;;;2.70;1.50;;;;;;;3.96;86.51;98376.31;5112088;27;20192;-56
2024/02/07 10:42:40;;;;;;;4.50;1.53;;;;;;;3.97;86.95;98382.25;5111365;27;20204;-51
2024/02/07 10:45:11;;;;;;;2.67;1.47;;;;;;;3.96;86.75;98370.38;5113753;27;20207;-51
2024/02/07 10:47:39;;;;;;;4.10;1.77;;;;;;;4.00;86.40;98361.84;5117963;27;21011;-58
2024/02/07 10:50:10;;;;;;;3.30;2.00;;;;;;;3.95;85.81;98373.81;5116190;27;20199;-54
2024/02/07 10:52:41;;;;;;;6.10;1.87;;;;;;;3.96;86.54;98380.56;5111270;27;20607;-52
2024/02/07 10:55:12;;;;;;;3.50;1.80;;;;;;;4.00;86.94;98377.13;5113757;27;20212;-53
2024/02/07 10:57:45;;;;;;;2.70;1.83;;;;;;;4.02;86.35;98380.50;5115476;27;20203;-53
2024/02/07 11:00:14;;;;;;;5.00;2.30;;;;;;;4.04;86.91;98386.41;5109034;28;20278;-53
2024/02/07 11:02:44;;;;;;;2.57;1.63;;;;;;;4.07;86.24;98366.84;5117845;27;20212;-56
2024/02/07 11:05:12;;;;;;;3.07;1.70;;;;;;;4.11;86.12;98382.94;5112491;27;20200;-54
2024/02/07 11:07:42;;;;;;;6.53;1.93;;;;;;;4.13;85.90;98377.84;5113191;27;20196;-53
2024/02/07 11:10:11;;;;;;;7.90;2.13;;;;;;;4.13;84.87;98370.19;5115745;27;20214;-55
2024/02/07 11:12:44;;;;;;;5.87;2.43;;;;;;;4.17;85.49;98372.66;5112323;27;20203;-59
2024/02/07 11:15:12;;;;;;;3.13;2.10;;;;;;;4.18;85.31;98384.53;5114372;28;20224;-52
2024/02/07 11:17:40;;;;;;;3.23;1.87;;;;;;;4.21;85.41;98376.88;5115067;27;20240;-53
2024/02/07 11:20:11;;;;;;;5.43;1.70;;;;;;;4.23;84.91;98371.72;5114257;27;20207;-56
2024/02/07 11:22:44;;;;;;;7.87;2.67;;;;;;;4.25;85.07;98375.97;5115408;27;20662;-52
2024/02/07 11:25:17;;;;;;;6.07;2.10;;;;;;;4.23;84.13;98364.94;5118871;27;20315;-54
2024/02/07 11:27:46;;;;;;;2.87;1.83;;;;;;;4.16;84.36;98386.28;5115800;27;20581;-57
2024/02/07 11:30:17;;;;;;;3.30;1.70;;;;;;;4.13;84.70;98382.94;5116537;27;20192;-50
2024/02/07 11:32:48;;;;;;;4.40;1.87;;;;;;;4.15;85.08;98374.38;5118359;27;20196;-52
2024/02/07 11:35:19;;;;;;;5.90;2.83;;;;;;;4.18;84.34;98371.81;5120653;27;20585;-51
2024/02/07 11:37:51;;;;;;;4.60;2.20;;;;;;;4.22;84.33;98370.91;5117430;27;20294;-60
2024/02/07 11:40:23;;;;;;;5.23;2.30;;;;;;;4.23;83.40;98364.09;5123243;27;20257;-51
2024/02/07 11:43:01;;;;;;;3.73;1.53;;;;;;;4.22;83.25;98363.25;5129214;27;20661;-62
2024/02/07 11:45:29;;;;;;;7.93;2.13;;;;;;;4.23;83.80;98379.38;5121970;27;20260;-61
2024/02/07 11:48:00;;;;;;;5.23;2.40;;;;;;;4.25;83.77;98368.31;5119863;27;20200;-56
2024/02/07 11:50:36;;;;;;;4.37;2.50;;;;;;;4.30;83.66;98376.72;5104079;28;20547;-57
2024/02/07 11:53:06;;;;;;;6.53;2.40;;;;;;;4.32;83.49;98367.38;5110639;27;20245;-52
2024/02/07 11:55:41;;;;;;;3.77;2.07;;;;;;;4.28;83.23;98378.47;5113355;27;20325;-55
2024/02/07 11:58:09;;;;;;;6.20;2.20;;;;;;;4.24;84.15;98376.00;5114060;27;20733;-52
2024/02/07 12:00:37;;;;;;;10.17;2.50;;;;;;;4.24;84.18;98392.13;5119182;27;20200;-52
2024/02/07 12:03:05;;;;;;;3.90;2.30;;;;;;;4.26;83.88;98385.28;5119475;27;20199;-52
2024/02/07 12:05:34;;;;;;;5.27;2.73;;;;;;;4.24;83.11;98378.53;5119306;27;20538;-52
2024/02/07 12:08:03;;;;;;;4.03;2.37;;;;;;;4.21;84.09;98392.16;5112388;27;20204;-50
2024/02/07 12:10:32;;;;;;;8.57;2.47;;;;;;;4.21;84.23;98402.34;5115226;27;20208;-54
2024/02/07 12:13:00;;;;;;;6.03;2.37;;;;;;;4.23;83.83;98399.78;5115442;27;20203;-52
2024/02/07 12:15:31;;;;;;;5.97;2.30;;;;;;;4.21;84.27;98394.72;5114750;27;20246;-57
2024/02/07 12:17:59;;;;;;;6.80;2.40;;;;;;;4.26;84.42;98397.19;5112241;27;20295;-52
2024/02/07 12:20:30;;;;;;;7.33;3.00;;;;;;;4.20;83.71;98395.59;5107775;28;20203;-55
2024/02/07 12:22:59;;;;;;;6.27;2.87;;;;;;;4.20;83.28;98385.38;5110289;27;20663;-60
2024/02/07 12:25:27;;;;;;;6.50;2.50;;;;;;;4.18;83.78;98387.09;5108159;28;20193;-55
2024/02/07 12:27:56;;;;;;;6.13;2.17;;;;;;;4.20;83.77;98382.84;5112314;27;20204;-58
2024/02/07 12:30:24;;;;;;;8.37;2.37;;;;;;;4.25;83.71;98393.81;5108008;27;20196;-51
2024/02/07 12:32:52;;;;;;;3.50;2.50;;;;;;;4.34;83.54;98396.25;5109113;27;20996;-58
2024/02/07 12:35:20;;;;;;;6.03;2.53;;;;;;;4.35;83.25;98395.38;5114754;27;20745;-56
2024/02/07 12:37:48;;;;;;;3.70;2.30;;;;;;;4.38;83.08;98397.03;5113264;27;20207;-58
2024/02/07 12:40:17;;;;;;;7.17;3.00;;;;;;;4.44;82.38;98408.88;5116011;27;20239;-57
2024/02/07 12:42:46;;;;;;;6.87;2.63;;;;;;;4.43;83.12;98402.09;5113514;27;20196;-58
2024/02/07 12:45:17;;;;;;;6.63;2.50;;;;;;;4.50;82.80;98398.59;5112412;27;20296;-62
2024/02/07 12:47:45;;;;;;;6.10;2.60;;;;;;;4.58;83.38;98399.31;5112220;27;20204;-56
2024/02/07 12:50:13;;;;;;;4.43;2.80;;;;;;;4.65;82.61;98395.81;5120983;27;20382;-56
2024/02/07 12:52:41;;;;;;;8.00;2.10;;;;;;;4.69;81.70;98405.13;5102066;28;20211;-59
2024/02/07 12:55:11;;;;;;;6.73;2.53;;;;;;;4.66;81.97;98399.22;5113113;27;20220;-60
2024/02/07 12:57:39;;;;;;;5.47;2.57;;;;;;;4.67;81.95;98417.03;5118595;27;20634;-57